sensor_id;sensor_type;location;lat;lon;timestamp;P1;durP1;ratioP1;P2;durP2;ratioP2
5225;SDS011;2632;51.666;7.146;2023-04-15T00:00:56;10.27;;;5.80;;
5225;SDS011;2632;51.666;7.146;2023-04-15T00:03:24;15.47;;;6.27;;
5225;SDS011;2632;51.666;7.146;2023-04-15T00:05:51;11.50;;;5.33;;
5225;SDS011;2632;51.666;7.146;2023-04-15T00:08:17;9.63;;;5.40;;
5225;SDS011;2632;51.666;7.146;2023-04-15T00:10:45;15.83;;;6.80;;
5225;SDS011;2632;51.666;7.146;2023-04-15T00:13:12;9.93;;;5.87;;
5225;SDS011;2632;51.666;7.146;2023-04-15T00:15:38;9.07;;;5.60;;
5225;SDS011;2632;51.666;7.146;2023-04-15T00:18:05;7.30;;;5.30;;
5225;SDS011;2632;51.666;7.146;2023-04-15T00:20:33;7.20;;;5.33;;
5225;SDS011;2632;51.666;7.146;2023-04-15T00:23:01;9.80;;;5.43;;
5225;SDS011;2632;51.666;7.146;2023-04-15T00:25:28;10.10;;;5.90;;
5225;SDS011;2632;51.666;7.146;2023-04-15T00:27:55;10.70;;;5.60;;
5225;SDS011;2632;51.666;7.146;2023-04-15T00:30:22;8.93;;;5.20;;
5225;SDS011;2632;51.666;7.146;2023-04-15T00:32:49;10.77;;;5.90;;
5225;SDS011;2632;51.666;7.146;2023-04-15T00:35:15;11.10;;;5.80;;
5225;SDS011;2632;51.666;7.146;2023-04-15T00:37:42;10.13;;;8.30;;
5225;SDS011;2632;51.666;7.146;2023-04-15T00:40:11;7.20;;;5.50;;
5225;SDS011;2632;51.666;7.146;2023-04-15T00:42:39;12.70;;;6.03;;
5225;SDS011;2632;51.666;7.146;2023-04-15T00:45:06;10.27;;;5.70;;
5225;SDS011;2632;51.666;7.146;2023-04-15T00:47:34;10.87;;;5.40;;
5225;SDS011;2632;51.666;7.146;2023-04-15T00:50:02;9.77;;;5.77;;
5225;SDS011;2632;51.666;7.146;2023-04-15T00:52:30;12.77;;;5.93;;
5225;SDS011;2632;51.666;7.146;2023-04-15T00:54:57;11.77;;;5.13;;
5225;SDS011;2632;51.666;7.146;2023-04-15T00:57:24;8.20;;;5.70;;
5225;SDS011;2632;51.666;7.146;2023-04-15T00:59:52;8.13;;;4.87;;
5225;SDS011;2632;51.666;7.146;2023-04-15T01:02:21;12.63;;;5.77;;
5225;SDS011;2632;51.666;7.146;2023-04-15T01:04:49;10.50;;;6.13;;
5225;SDS011;2632;51.666;7.146;2023-04-15T01:07:15;9.13;;;5.33;;
5225;SDS011;2632;51.666;7.146;2023-04-15T01:09:42;14.00;;;6.20;;
5225;SDS011;2632;51.666;7.146;2023-04-15T01:12:09;11.23;;;6.20;;
5225;SDS011;2632;51.666;7.146;2023-04-15T01:14:39;9.80;;;5.93;;
5225;SDS011;2632;51.666;7.146;2023-04-15T01:17:05;10.60;;;5.73;;
5225;SDS011;2632;51.666;7.146;2023-04-15T01:19:32;10.13;;;6.20;;
5225;SDS011;2632;51.666;7.146;2023-04-15T01:21:59;10.40;;;6.00;;
5225;SDS011;2632;51.666;7.146;2023-04-15T01:24:27;13.83;;;6.40;;
5225;SDS011;2632;51.666;7.146;2023-04-15T01:26:56;13.23;;;7.20;;
5225;SDS011;2632;51.666;7.146;2023-04-15T01:29:23;9.50;;;6.40;;
5225;SDS011;2632;51.666;7.146;2023-04-15T01:31:50;9.73;;;6.57;;
5225;SDS011;2632;51.666;7.146;2023-04-15T01:34:18;12.43;;;6.83;;
5225;SDS011;2632;51.666;7.146;2023-04-15T01:36:44;11.03;;;7.20;;
5225;SDS011;2632;51.666;7.146;2023-04-15T01:39:11;11.83;;;6.80;;
5225;SDS011;2632;51.666;7.146;2023-04-15T01:41:38;11.73;;;7.00;;
5225;SDS011;2632;51.666;7.146;2023-04-15T01:44:05;10.20;;;6.37;;
5225;SDS011;2632;51.666;7.146;2023-04-15T01:46:33;10.90;;;6.70;;
5225;SDS011;2632;51.666;7.146;2023-04-15T01:49:01;11.33;;;6.40;;
5225;SDS011;2632;51.666;7.146;2023-04-15T01:51:28;10.53;;;6.57;;
5225;SDS011;2632;51.666;7.146;2023-04-15T01:53:54;11.67;;;6.30;;
5225;SDS011;2632;51.666;7.146;2023-04-15T01:56:24;11.17;;;6.20;;
5225;SDS011;2632;51.666;7.146;2023-04-15T01:58:51;11.10;;;6.80;;
5225;SDS011;2632;51.666;7.146;2023-04-15T02:01:18;15.13;;;7.63;;
5225;SDS011;2632;51.666;7.146;2023-04-15T02:03:45;12.67;;;7.20;;
5225;SDS011;2632;51.666;7.146;2023-04-15T02:06:13;10.30;;;6.70;;
5225;SDS011;2632;51.666;7.146;2023-04-15T02:08:40;13.00;;;7.33;;
5225;SDS011;2632;51.666;7.146;2023-04-15T02:11:06;10.70;;;6.70;;
5225;SDS011;2632;51.666;7.146;2023-04-15T02:13:33;12.17;;;7.07;;
5225;SDS011;2632;51.666;7.146;2023-04-15T02:16:00;13.73;;;7.43;;
5225;SDS011;2632;51.666;7.146;2023-04-15T02:18:26;16.30;;;7.00;;
5225;SDS011;2632;51.666;7.146;2023-04-15T02:20:53;12.37;;;7.03;;
5225;SDS011;2632;51.666;7.146;2023-04-15T02:23:22;13.73;;;6.90;;
5225;SDS011;2632;51.666;7.146;2023-04-15T02:25:48;13.23;;;7.60;;
5225;SDS011;2632;51.666;7.146;2023-04-15T02:28:19;10.30;;;6.50;;
5225;SDS011;2632;51.666;7.146;2023-04-15T02:30:47;12.77;;;7.13;;
5225;SDS011;2632;51.666;7.146;2023-04-15T02:33:17;10.00;;;6.60;;
5225;SDS011;2632;51.666;7.146;2023-04-15T02:35:45;10.60;;;7.00;;
5225;SDS011;2632;51.666;7.146;2023-04-15T02:38:12;13.60;;;7.33;;
5225;SDS011;2632;51.666;7.146;2023-04-15T02:40:41;15.00;;;7.83;;
5225;SDS011;2632;51.666;7.146;2023-04-15T02:43:08;13.10;;;8.10;;
5225;SDS011;2632;51.666;7.146;2023-04-15T02:45:34;10.40;;;6.67;;
5225;SDS011;2632;51.666;7.146;2023-04-15T02:48:01;10.20;;;6.30;;
5225;SDS011;2632;51.666;7.146;2023-04-15T02:50:31;11.50;;;6.80;;
5225;SDS011;2632;51.666;7.146;2023-04-15T02:52:58;16.10;;;8.10;;
5225;SDS011;2632;51.666;7.146;2023-04-15T02:55:26;13.17;;;7.93;;
5225;SDS011;2632;51.666;7.146;2023-04-15T02:57:53;12.33;;;6.90;;
5225;SDS011;2632;51.666;7.146;2023-04-15T03:00:19;12.43;;;7.67;;
5225;SDS011;2632;51.666;7.146;2023-04-15T03:02:46;14.20;;;7.47;;
5225;SDS011;2632;51.666;7.146;2023-04-15T03:05:15;11.80;;;7.97;;
5225;SDS011;2632;51.666;7.146;2023-04-15T03:07:41;12.30;;;7.23;;
5225;SDS011;2632;51.666;7.146;2023-04-15T03:10:08;14.20;;;7.53;;
5225;SDS011;2632;51.666;7.146;2023-04-15T03:12:35;13.20;;;7.63;;
5225;SDS011;2632;51.666;7.146;2023-04-15T03:15:02;12.47;;;7.00;;
5225;SDS011;2632;51.666;7.146;2023-04-15T03:17:29;13.90;;;7.40;;
5225;SDS011;2632;51.666;7.146;2023-04-15T03:19:55;12.03;;;7.30;;
5225;SDS011;2632;51.666;7.146;2023-04-15T03:22:24;13.93;;;7.53;;
5225;SDS011;2632;51.666;7.146;2023-04-15T03:24:51;12.40;;;7.20;;
5225;SDS011;2632;51.666;7.146;2023-04-15T03:27:18;16.03;;;8.00;;
5225;SDS011;2632;51.666;7.146;2023-04-15T03:29:44;14.20;;;7.90;;
5225;SDS011;2632;51.666;7.146;2023-04-15T03:32:11;11.30;;;6.83;;
5225;SDS011;2632;51.666;7.146;2023-04-15T03:34:38;13.80;;;7.43;;
5225;SDS011;2632;51.666;7.146;2023-04-15T03:37:04;15.63;;;7.73;;
5225;SDS011;2632;51.666;7.146;2023-04-15T03:39:31;12.57;;;7.50;;
5225;SDS011;2632;51.666;7.146;2023-04-15T03:41:57;15.03;;;7.80;;
5225;SDS011;2632;51.666;7.146;2023-04-15T03:44:27;15.00;;;7.47;;
5225;SDS011;2632;51.666;7.146;2023-04-15T03:46:54;13.27;;;7.70;;
5225;SDS011;2632;51.666;7.146;2023-04-15T03:49:21;14.17;;;8.17;;
5225;SDS011;2632;51.666;7.146;2023-04-15T03:51:48;10.77;;;6.77;;
5225;SDS011;2632;51.666;7.146;2023-04-15T03:54:14;13.47;;;8.17;;
5225;SDS011;2632;51.666;7.146;2023-04-15T03:56:41;14.40;;;7.90;;
5225;SDS011;2632;51.666;7.146;2023-04-15T03:59:08;12.67;;;7.70;;
5225;SDS011;2632;51.666;7.146;2023-04-15T04:01:35;15.00;;;7.93;;
5225;SDS011;2632;51.666;7.146;2023-04-15T04:04:01;13.17;;;7.37;;
5225;SDS011;2632;51.666;7.146;2023-04-15T04:06:28;15.27;;;8.33;;
5225;SDS011;2632;51.666;7.146;2023-04-15T04:08:55;18.40;;;7.83;;
5225;SDS011;2632;51.666;7.146;2023-04-15T04:11:21;12.43;;;8.03;;
5225;SDS011;2632;51.666;7.146;2023-04-15T04:13:48;12.37;;;7.80;;
5225;SDS011;2632;51.666;7.146;2023-04-15T04:16:14;13.07;;;7.97;;
5225;SDS011;2632;51.666;7.146;2023-04-15T04:18:41;11.20;;;7.20;;
5225;SDS011;2632;51.666;7.146;2023-04-15T04:21:08;17.13;;;9.30;;
5225;SDS011;2632;51.666;7.146;2023-04-15T04:23:35;16.23;;;9.40;;
5225;SDS011;2632;51.666;7.146;2023-04-15T04:26:01;15.87;;;9.30;;
5225;SDS011;2632;51.666;7.146;2023-04-15T04:28:28;17.07;;;8.60;;
5225;SDS011;2632;51.666;7.146;2023-04-15T04:30:54;13.77;;;8.20;;
5225;SDS011;2632;51.666;7.146;2023-04-15T04:33:21;13.73;;;8.60;;
5225;SDS011;2632;51.666;7.146;2023-04-15T04:35:48;16.67;;;8.37;;
5225;SDS011;2632;51.666;7.146;2023-04-15T04:38:15;21.50;;;8.90;;
5225;SDS011;2632;51.666;7.146;2023-04-15T04:40:41;16.33;;;9.13;;
5225;SDS011;2632;51.666;7.146;2023-04-15T04:43:08;16.97;;;8.87;;
5225;SDS011;2632;51.666;7.146;2023-04-15T04:45:35;16.53;;;9.00;;
5225;SDS011;2632;51.666;7.146;2023-04-15T04:48:01;15.10;;;9.10;;
5225;SDS011;2632;51.666;7.146;2023-04-15T04:50:32;16.50;;;8.77;;
5225;SDS011;2632;51.666;7.146;2023-04-15T04:52:59;20.50;;;9.60;;
5225;SDS011;2632;51.666;7.146;2023-04-15T04:55:27;19.90;;;9.60;;
5225;SDS011;2632;51.666;7.146;2023-04-15T04:57:53;20.27;;;9.83;;
5225;SDS011;2632;51.666;7.146;2023-04-15T05:00:20;20.97;;;10.73;;
5225;SDS011;2632;51.666;7.146;2023-04-15T05:02:47;17.17;;;10.07;;
5225;SDS011;2632;51.666;7.146;2023-04-15T05:05:14;16.17;;;9.97;;
5225;SDS011;2632;51.666;7.146;2023-04-15T05:07:41;18.40;;;10.50;;
5225;SDS011;2632;51.666;7.146;2023-04-15T05:10:08;17.90;;;10.13;;
5225;SDS011;2632;51.666;7.146;2023-04-15T05:12:35;19.77;;;10.53;;
5225;SDS011;2632;51.666;7.146;2023-04-15T05:15:04;17.40;;;9.80;;
5225;SDS011;2632;51.666;7.146;2023-04-15T05:17:31;17.60;;;10.00;;
5225;SDS011;2632;51.666;7.146;2023-04-15T05:20:00;19.63;;;10.80;;
5225;SDS011;2632;51.666;7.146;2023-04-15T05:22:28;17.67;;;10.20;;
5225;SDS011;2632;51.666;7.146;2023-04-15T05:24:54;23.97;;;11.33;;
5225;SDS011;2632;51.666;7.146;2023-04-15T05:27:21;18.60;;;10.80;;
5225;SDS011;2632;51.666;7.146;2023-04-15T05:29:49;19.37;;;10.73;;
5225;SDS011;2632;51.666;7.146;2023-04-15T05:32:15;18.27;;;9.93;;
5225;SDS011;2632;51.666;7.146;2023-04-15T05:34:42;19.97;;;11.47;;
5225;SDS011;2632;51.666;7.146;2023-04-15T05:37:09;17.53;;;10.33;;
5225;SDS011;2632;51.666;7.146;2023-04-15T05:39:35;18.10;;;10.97;;
5225;SDS011;2632;51.666;7.146;2023-04-15T05:42:02;21.83;;;10.83;;
5225;SDS011;2632;51.666;7.146;2023-04-15T05:44:31;20.17;;;10.17;;
5225;SDS011;2632;51.666;7.146;2023-04-15T05:46:58;20.93;;;10.37;;
5225;SDS011;2632;51.666;7.146;2023-04-15T05:49:24;24.43;;;10.47;;
5225;SDS011;2632;51.666;7.146;2023-04-15T05:51:51;20.17;;;11.33;;
5225;SDS011;2632;51.666;7.146;2023-04-15T05:54:18;23.63;;;11.10;;
5225;SDS011;2632;51.666;7.146;2023-04-15T05:56:45;22.70;;;10.73;;
5225;SDS011;2632;51.666;7.146;2023-04-15T05:59:12;20.20;;;10.50;;
5225;SDS011;2632;51.666;7.146;2023-04-15T06:01:38;21.23;;;11.20;;
5225;SDS011;2632;51.666;7.146;2023-04-15T06:04:05;23.47;;;11.80;;
5225;SDS011;2632;51.666;7.146;2023-04-15T06:06:32;21.60;;;12.30;;
5225;SDS011;2632;51.666;7.146;2023-04-15T06:08:59;21.10;;;10.67;;
5225;SDS011;2632;51.666;7.146;2023-04-15T06:11:26;20.90;;;11.40;;
5225;SDS011;2632;51.666;7.146;2023-04-15T06:13:53;19.60;;;10.47;;
5225;SDS011;2632;51.666;7.146;2023-04-15T06:16:20;22.53;;;11.20;;
5225;SDS011;2632;51.666;7.146;2023-04-15T06:18:47;19.20;;;10.33;;
5225;SDS011;2632;51.666;7.146;2023-04-15T06:21:14;21.00;;;10.70;;
5225;SDS011;2632;51.666;7.146;2023-04-15T06:23:40;22.37;;;10.10;;
5225;SDS011;2632;51.666;7.146;2023-04-15T06:26:07;23.87;;;10.87;;
5225;SDS011;2632;51.666;7.146;2023-04-15T06:28:34;20.20;;;9.23;;
5225;SDS011;2632;51.666;7.146;2023-04-15T06:31:03;19.50;;;9.60;;
5225;SDS011;2632;51.666;7.146;2023-04-15T06:33:30;21.37;;;9.87;;
5225;SDS011;2632;51.666;7.146;2023-04-15T06:35:57;17.03;;;9.87;;
5225;SDS011;2632;51.666;7.146;2023-04-15T06:38:24;15.23;;;9.13;;
5225;SDS011;2632;51.666;7.146;2023-04-15T06:40:50;17.00;;;9.00;;
5225;SDS011;2632;51.666;7.146;2023-04-15T06:43:17;16.07;;;9.20;;
5225;SDS011;2632;51.666;7.146;2023-04-15T06:45:45;21.07;;;8.90;;
5225;SDS011;2632;51.666;7.146;2023-04-15T06:48:12;23.10;;;9.60;;
5225;SDS011;2632;51.666;7.146;2023-04-15T06:50:38;15.47;;;8.23;;
5225;SDS011;2632;51.666;7.146;2023-04-15T06:53:06;14.63;;;8.30;;
5225;SDS011;2632;51.666;7.146;2023-04-15T06:55:32;19.63;;;8.80;;
5225;SDS011;2632;51.666;7.146;2023-04-15T06:57:59;22.23;;;9.80;;
5225;SDS011;2632;51.666;7.146;2023-04-15T07:00:26;18.90;;;8.93;;
5225;SDS011;2632;51.666;7.146;2023-04-15T07:02:53;16.20;;;8.90;;
5225;SDS011;2632;51.666;7.146;2023-04-15T07:05:20;13.47;;;7.67;;
5225;SDS011;2632;51.666;7.146;2023-04-15T07:07:48;12.90;;;7.67;;
5225;SDS011;2632;51.666;7.146;2023-04-15T07:10:15;15.57;;;8.53;;
5225;SDS011;2632;51.666;7.146;2023-04-15T07:12:42;14.90;;;8.30;;
5225;SDS011;2632;51.666;7.146;2023-04-15T07:15:08;13.63;;;7.90;;
5225;SDS011;2632;51.666;7.146;2023-04-15T07:17:35;13.70;;;8.03;;
5225;SDS011;2632;51.666;7.146;2023-04-15T07:20:02;13.50;;;7.80;;
5225;SDS011;2632;51.666;7.146;2023-04-15T07:22:30;16.73;;;7.70;;
5225;SDS011;2632;51.666;7.146;2023-04-15T07:24:56;11.70;;;6.83;;
5225;SDS011;2632;51.666;7.146;2023-04-15T07:27:23;16.03;;;7.53;;
5225;SDS011;2632;51.666;7.146;2023-04-15T07:29:50;11.10;;;6.50;;
5225;SDS011;2632;51.666;7.146;2023-04-15T07:32:17;15.90;;;7.47;;
5225;SDS011;2632;51.666;7.146;2023-04-15T07:34:44;14.90;;;6.87;;
5225;SDS011;2632;51.666;7.146;2023-04-15T07:37:11;13.73;;;7.83;;
5225;SDS011;2632;51.666;7.146;2023-04-15T07:39:38;13.57;;;7.23;;
5225;SDS011;2632;51.666;7.146;2023-04-15T07:42:05;12.10;;;7.27;;
5225;SDS011;2632;51.666;7.146;2023-04-15T07:44:32;14.40;;;7.13;;
5225;SDS011;2632;51.666;7.146;2023-04-15T07:46:59;11.47;;;6.40;;
5225;SDS011;2632;51.666;7.146;2023-04-15T07:49:27;10.63;;;6.27;;
5225;SDS011;2632;51.666;7.146;2023-04-15T07:51:54;12.90;;;7.00;;
5225;SDS011;2632;51.666;7.146;2023-04-15T07:54:22;12.60;;;7.13;;
5225;SDS011;2632;51.666;7.146;2023-04-15T07:56:49;11.27;;;6.47;;
5225;SDS011;2632;51.666;7.146;2023-04-15T07:59:16;13.73;;;7.20;;
5225;SDS011;2632;51.666;7.146;2023-04-15T08:01:43;10.63;;;6.90;;
5225;SDS011;2632;51.666;7.146;2023-04-15T08:04:11;10.07;;;6.07;;
5225;SDS011;2632;51.666;7.146;2023-04-15T08:06:38;10.73;;;6.50;;
5225;SDS011;2632;51.666;7.146;2023-04-15T08:09:05;13.90;;;6.77;;
5225;SDS011;2632;51.666;7.146;2023-04-15T08:11:33;12.60;;;6.10;;
5225;SDS011;2632;51.666;7.146;2023-04-15T08:14:00;13.90;;;7.20;;
5225;SDS011;2632;51.666;7.146;2023-04-15T08:16:28;16.10;;;7.17;;
5225;SDS011;2632;51.666;7.146;2023-04-15T08:18:55;13.97;;;6.93;;
5225;SDS011;2632;51.666;7.146;2023-04-15T08:21:23;9.90;;;5.90;;
5225;SDS011;2632;51.666;7.146;2023-04-15T08:23:50;13.73;;;6.87;;
5225;SDS011;2632;51.666;7.146;2023-04-15T08:26:18;10.13;;;5.50;;
5225;SDS011;2632;51.666;7.146;2023-04-15T08:28:46;10.30;;;5.27;;
5225;SDS011;2632;51.666;7.146;2023-04-15T08:31:14;5.97;;;4.10;;
5225;SDS011;2632;51.666;7.146;2023-04-15T08:33:42;6.73;;;4.47;;
5225;SDS011;2632;51.666;7.146;2023-04-15T08:36:09;7.97;;;4.63;;
5225;SDS011;2632;51.666;7.146;2023-04-15T08:38:35;6.70;;;4.37;;
5225;SDS011;2632;51.666;7.146;2023-04-15T08:41:03;8.90;;;4.63;;
5225;SDS011;2632;51.666;7.146;2023-04-15T08:43:38;6.87;;;4.27;;
5225;SDS011;2632;51.666;7.146;2023-04-15T08:46:16;8.13;;;4.23;;
5225;SDS011;2632;51.666;7.146;2023-04-15T08:48:44;7.90;;;4.60;;
5225;SDS011;2632;51.666;7.146;2023-04-15T08:51:12;5.73;;;4.40;;
5225;SDS011;2632;51.666;7.146;2023-04-15T08:53:44;5.47;;;4.10;;
5225;SDS011;2632;51.666;7.146;2023-04-15T08:56:13;8.33;;;4.97;;
5225;SDS011;2632;51.666;7.146;2023-04-15T08:58:44;7.03;;;4.77;;
5225;SDS011;2632;51.666;7.146;2023-04-15T09:01:12;7.20;;;4.67;;
5225;SDS011;2632;51.666;7.146;2023-04-15T09:03:39;8.20;;;5.10;;
5225;SDS011;2632;51.666;7.146;2023-04-15T09:06:06;9.10;;;4.50;;
5225;SDS011;2632;51.666;7.146;2023-04-15T09:08:33;8.17;;;4.60;;
5225;SDS011;2632;51.666;7.146;2023-04-15T09:11:01;6.63;;;4.57;;
5225;SDS011;2632;51.666;7.146;2023-04-15T09:13:28;7.50;;;5.00;;
5225;SDS011;2632;51.666;7.146;2023-04-15T09:15:55;7.67;;;5.23;;
5225;SDS011;2632;51.666;7.146;2023-04-15T09:18:33;8.87;;;4.93;;
5225;SDS011;2632;51.666;7.146;2023-04-15T09:21:11;6.80;;;4.70;;
5225;SDS011;2632;51.666;7.146;2023-04-15T09:23:53;5.10;;;4.27;;
5225;SDS011;2632;51.666;7.146;2023-04-15T09:26:33;8.00;;;5.27;;
5225;SDS011;2632;51.666;7.146;2023-04-15T09:29:08;7.90;;;4.90;;
5225;SDS011;2632;51.666;7.146;2023-04-15T09:31:36;7.53;;;4.70;;
5225;SDS011;2632;51.666;7.146;2023-04-15T09:34:03;7.10;;;4.77;;
5225;SDS011;2632;51.666;7.146;2023-04-15T09:39:15;8.50;;;5.13;;
5225;SDS011;2632;51.666;7.146;2023-04-15T09:41:42;9.17;;;4.83;;
5225;SDS011;2632;51.666;7.146;2023-04-15T09:44:22;9.67;;;5.17;;
5225;SDS011;2632;51.666;7.146;2023-04-15T09:46:49;8.00;;;5.40;;
5225;SDS011;2632;51.666;7.146;2023-04-15T09:49:16;7.17;;;4.80;;
5225;SDS011;2632;51.666;7.146;2023-04-15T09:51:43;6.57;;;5.20;;
5225;SDS011;2632;51.666;7.146;2023-04-15T09:54:33;7.87;;;4.80;;
5225;SDS011;2632;51.666;7.146;2023-04-15T09:57:04;6.97;;;4.67;;
5225;SDS011;2632;51.666;7.146;2023-04-15T09:59:35;7.60;;;5.17;;
5225;SDS011;2632;51.666;7.146;2023-04-15T10:02:03;10.40;;;6.07;;
5225;SDS011;2632;51.666;7.146;2023-04-15T10:04:32;9.90;;;6.63;;
5225;SDS011;2632;51.666;7.146;2023-04-15T10:07:02;11.23;;;6.60;;
5225;SDS011;2632;51.666;7.146;2023-04-15T10:09:31;9.70;;;5.80;;
5225;SDS011;2632;51.666;7.146;2023-04-15T10:11:59;9.50;;;6.40;;
5225;SDS011;2632;51.666;7.146;2023-04-15T10:14:26;8.17;;;5.90;;
5225;SDS011;2632;51.666;7.146;2023-04-15T10:16:57;8.37;;;4.80;;
5225;SDS011;2632;51.666;7.146;2023-04-15T10:19:32;7.73;;;5.30;;
5225;SDS011;2632;51.666;7.146;2023-04-15T10:22:02;9.03;;;5.10;;
5225;SDS011;2632;51.666;7.146;2023-04-15T10:24:30;17.83;;;5.77;;
5225;SDS011;2632;51.666;7.146;2023-04-15T10:26:57;8.00;;;4.80;;
5225;SDS011;2632;51.666;7.146;2023-04-15T10:29:25;8.87;;;5.27;;
5225;SDS011;2632;51.666;7.146;2023-04-15T10:31:53;8.30;;;4.80;;
5225;SDS011;2632;51.666;7.146;2023-04-15T10:34:22;6.80;;;4.63;;
5225;SDS011;2632;51.666;7.146;2023-04-15T10:36:49;9.80;;;5.77;;
5225;SDS011;2632;51.666;7.146;2023-04-15T10:44:36;8.17;;;4.30;;
5225;SDS011;2632;51.666;7.146;2023-04-15T10:47:12;6.83;;;4.83;;
5225;SDS011;2632;51.666;7.146;2023-04-15T10:49:51;8.17;;;4.80;;
5225;SDS011;2632;51.666;7.146;2023-04-15T10:52:26;9.27;;;4.60;;
5225;SDS011;2632;51.666;7.146;2023-04-15T10:55:11;7.80;;;5.10;;
5225;SDS011;2632;51.666;7.146;2023-04-15T10:57:41;7.20;;;4.93;;
5225;SDS011;2632;51.666;7.146;2023-04-15T11:00:09;9.50;;;5.20;;
5225;SDS011;2632;51.666;7.146;2023-04-15T11:02:42;8.23;;;4.70;;
5225;SDS011;2632;51.666;7.146;2023-04-15T11:05:11;7.93;;;5.00;;
5225;SDS011;2632;51.666;7.146;2023-04-15T11:07:39;9.10;;;4.47;;
5225;SDS011;2632;51.666;7.146;2023-04-15T11:12:39;5.70;;;4.10;;
5225;SDS011;2632;51.666;7.146;2023-04-15T11:18:18;8.70;;;5.27;;
5225;SDS011;2632;51.666;7.146;2023-04-15T11:20:46;6.90;;;4.40;;
5225;SDS011;2632;51.666;7.146;2023-04-15T11:23:18;7.70;;;4.50;;
5225;SDS011;2632;51.666;7.146;2023-04-15T11:25:53;7.63;;;4.50;;
5225;SDS011;2632;51.666;7.146;2023-04-15T11:28:20;7.77;;;4.50;;
5225;SDS011;2632;51.666;7.146;2023-04-15T11:30:54;9.30;;;4.43;;
5225;SDS011;2632;51.666;7.146;2023-04-15T11:33:22;7.37;;;4.20;;
5225;SDS011;2632;51.666;7.146;2023-04-15T11:35:49;9.67;;;5.20;;
5225;SDS011;2632;51.666;7.146;2023-04-15T11:38:19;10.43;;;4.90;;
5225;SDS011;2632;51.666;7.146;2023-04-15T11:40:47;8.07;;;4.30;;
5225;SDS011;2632;51.666;7.146;2023-04-15T11:43:16;6.77;;;4.40;;
5225;SDS011;2632;51.666;7.146;2023-04-15T11:45:51;9.33;;;5.13;;
5225;SDS011;2632;51.666;7.146;2023-04-15T11:48:21;6.73;;;4.30;;
5225;SDS011;2632;51.666;7.146;2023-04-15T11:50:52;7.77;;;4.33;;
5225;SDS011;2632;51.666;7.146;2023-04-15T11:53:21;8.40;;;4.80;;
5225;SDS011;2632;51.666;7.146;2023-04-15T11:55:52;7.30;;;3.73;;
5225;SDS011;2632;51.666;7.146;2023-04-15T11:58:20;6.83;;;4.20;;
5225;SDS011;2632;51.666;7.146;2023-04-15T12:00:57;5.87;;;3.63;;
5225;SDS011;2632;51.666;7.146;2023-04-15T12:03:29;5.93;;;3.80;;
5225;SDS011;2632;51.666;7.146;2023-04-15T12:11:14;6.10;;;3.70;;
5225;SDS011;2632;51.666;7.146;2023-04-15T12:13:45;7.90;;;4.23;;
5225;SDS011;2632;51.666;7.146;2023-04-15T12:16:19;9.53;;;3.87;;
5225;SDS011;2632;51.666;7.146;2023-04-15T12:18:57;5.43;;;3.63;;
5225;SDS011;2632;51.666;7.146;2023-04-15T12:21:25;8.33;;;3.90;;
5225;SDS011;2632;51.666;7.146;2023-04-15T12:23:54;6.80;;;3.80;;
5225;SDS011;2632;51.666;7.146;2023-04-15T12:29:13;5.50;;;3.00;;
5225;SDS011;2632;51.666;7.146;2023-04-15T12:31:51;4.30;;;3.10;;
5225;SDS011;2632;51.666;7.146;2023-04-15T12:34:29;8.10;;;4.10;;
5225;SDS011;2632;51.666;7.146;2023-04-15T12:36:58;8.17;;;4.00;;
5225;SDS011;2632;51.666;7.146;2023-04-15T12:39:31;4.63;;;3.30;;
5225;SDS011;2632;51.666;7.146;2023-04-15T12:42:02;5.33;;;3.30;;
5225;SDS011;2632;51.666;7.146;2023-04-15T12:44:29;5.93;;;3.70;;
5225;SDS011;2632;51.666;7.146;2023-04-15T12:46:56;8.83;;;3.50;;
5225;SDS011;2632;51.666;7.146;2023-04-15T12:49:23;5.77;;;3.23;;
5225;SDS011;2632;51.666;7.146;2023-04-15T12:51:51;8.60;;;3.10;;
5225;SDS011;2632;51.666;7.146;2023-04-15T12:54:20;4.60;;;2.83;;
5225;SDS011;2632;51.666;7.146;2023-04-15T12:56:48;4.53;;;3.20;;
5225;SDS011;2632;51.666;7.146;2023-04-15T12:59:15;6.30;;;3.57;;
5225;SDS011;2632;51.666;7.146;2023-04-15T13:01:44;5.27;;;3.40;;
5225;SDS011;2632;51.666;7.146;2023-04-15T13:04:11;4.67;;;3.20;;
5225;SDS011;2632;51.666;7.146;2023-04-15T13:06:38;3.13;;;2.47;;
5225;SDS011;2632;51.666;7.146;2023-04-15T13:09:05;3.67;;;3.10;;
5225;SDS011;2632;51.666;7.146;2023-04-15T13:11:32;5.00;;;2.87;;
5225;SDS011;2632;51.666;7.146;2023-04-15T13:13:59;5.20;;;2.93;;
5225;SDS011;2632;51.666;7.146;2023-04-15T13:16:27;4.70;;;3.13;;
5225;SDS011;2632;51.666;7.146;2023-04-15T13:18:54;4.73;;;3.47;;
5225;SDS011;2632;51.666;7.146;2023-04-15T13:21:21;6.07;;;3.20;;
5225;SDS011;2632;51.666;7.146;2023-04-15T13:23:48;6.23;;;3.40;;
5225;SDS011;2632;51.666;7.146;2023-04-15T13:26:16;4.37;;;3.20;;
5225;SDS011;2632;51.666;7.146;2023-04-15T13:28:43;6.73;;;4.30;;
5225;SDS011;2632;51.666;7.146;2023-04-15T13:31:11;4.90;;;3.60;;
5225;SDS011;2632;51.666;7.146;2023-04-15T13:33:37;6.83;;;3.37;;
5225;SDS011;2632;51.666;7.146;2023-04-15T13:36:04;4.00;;;2.87;;
5225;SDS011;2632;51.666;7.146;2023-04-15T13:38:31;4.67;;;3.10;;
5225;SDS011;2632;51.666;7.146;2023-04-15T13:40:58;5.93;;;3.37;;
5225;SDS011;2632;51.666;7.146;2023-04-15T13:43:25;5.03;;;3.30;;
5225;SDS011;2632;51.666;7.146;2023-04-15T13:45:52;5.47;;;3.37;;
5225;SDS011;2632;51.666;7.146;2023-04-15T13:48:18;4.90;;;3.27;;
5225;SDS011;2632;51.666;7.146;2023-04-15T13:50:45;5.00;;;3.67;;
5225;SDS011;2632;51.666;7.146;2023-04-15T13:53:11;5.30;;;3.60;;
5225;SDS011;2632;51.666;7.146;2023-04-15T13:55:38;5.23;;;3.63;;
5225;SDS011;2632;51.666;7.146;2023-04-15T13:58:08;4.80;;;3.30;;
5225;SDS011;2632;51.666;7.146;2023-04-15T14:00:36;4.03;;;3.30;;
5225;SDS011;2632;51.666;7.146;2023-04-15T14:03:03;7.50;;;4.00;;
5225;SDS011;2632;51.666;7.146;2023-04-15T14:05:30;5.63;;;3.83;;
5225;SDS011;2632;51.666;7.146;2023-04-15T14:07:58;5.27;;;3.20;;
5225;SDS011;2632;51.666;7.146;2023-04-15T14:10:25;5.70;;;4.10;;
5225;SDS011;2632;51.666;7.146;2023-04-15T14:12:52;7.13;;;4.07;;
5225;SDS011;2632;51.666;7.146;2023-04-15T14:15:18;4.90;;;3.80;;
5225;SDS011;2632;51.666;7.146;2023-04-15T14:17:46;5.03;;;3.43;;
5225;SDS011;2632;51.666;7.146;2023-04-15T14:20:12;5.50;;;3.60;;
5225;SDS011;2632;51.666;7.146;2023-04-15T14:22:42;6.13;;;4.30;;
5225;SDS011;2632;51.666;7.146;2023-04-15T14:25:09;7.20;;;4.37;;
5225;SDS011;2632;51.666;7.146;2023-04-15T14:27:45;7.20;;;3.63;;
5225;SDS011;2632;51.666;7.146;2023-04-15T14:30:11;6.50;;;4.00;;
5225;SDS011;2632;51.666;7.146;2023-04-15T14:32:38;5.70;;;3.47;;
5225;SDS011;2632;51.666;7.146;2023-04-15T14:35:05;5.87;;;3.87;;
5225;SDS011;2632;51.666;7.146;2023-04-15T14:37:32;4.77;;;3.80;;
5225;SDS011;2632;51.666;7.146;2023-04-15T14:39:58;9.53;;;4.50;;
5225;SDS011;2632;51.666;7.146;2023-04-15T14:42:25;5.80;;;3.70;;
5225;SDS011;2632;51.666;7.146;2023-04-15T14:44:52;4.80;;;4.03;;
5225;SDS011;2632;51.666;7.146;2023-04-15T14:47:18;8.07;;;4.27;;
5225;SDS011;2632;51.666;7.146;2023-04-15T14:49:45;8.13;;;4.60;;
5225;SDS011;2632;51.666;7.146;2023-04-15T14:52:12;6.30;;;3.63;;
5225;SDS011;2632;51.666;7.146;2023-04-15T14:54:39;5.60;;;3.60;;
5225;SDS011;2632;51.666;7.146;2023-04-15T14:57:06;5.70;;;4.03;;
5225;SDS011;2632;51.666;7.146;2023-04-15T14:59:33;6.13;;;4.00;;
5225;SDS011;2632;51.666;7.146;2023-04-15T15:02:00;9.57;;;4.60;;
5225;SDS011;2632;51.666;7.146;2023-04-15T15:04:27;4.60;;;4.03;;
5225;SDS011;2632;51.666;7.146;2023-04-15T15:06:54;5.10;;;3.57;;
5225;SDS011;2632;51.666;7.146;2023-04-15T15:09:21;5.20;;;3.50;;
5225;SDS011;2632;51.666;7.146;2023-04-15T15:11:48;5.17;;;3.83;;
5225;SDS011;2632;51.666;7.146;2023-04-15T15:14:15;6.07;;;3.70;;
5225;SDS011;2632;51.666;7.146;2023-04-15T15:16:42;5.90;;;3.67;;
5225;SDS011;2632;51.666;7.146;2023-04-15T15:19:09;5.23;;;3.80;;
5225;SDS011;2632;51.666;7.146;2023-04-15T15:21:36;7.47;;;3.67;;
5225;SDS011;2632;51.666;7.146;2023-04-15T15:24:02;5.70;;;3.87;;
5225;SDS011;2632;51.666;7.146;2023-04-15T15:26:29;7.17;;;4.07;;
5225;SDS011;2632;51.666;7.146;2023-04-15T15:28:56;5.93;;;3.97;;
5225;SDS011;2632;51.666;7.146;2023-04-15T15:31:23;4.00;;;3.60;;
5225;SDS011;2632;51.666;7.146;2023-04-15T15:33:50;4.40;;;3.20;;